Time;durP1;ratioP1;P1;durP2;ratioP2;P2;SDS_P1;SDS_P2;PMS_P1;PMS_P2;Temp;Humidity;BMP_temperature;BMP_pressure;BME280_temperature;BME280_humidity;BME280_pressure;Samples;Min_cycle;Max_cycle;Signal;HPM_P1;HPM_P2
2023/03/14 00:01:53;;;;;;;6.00;1.25;;;11.10;99.90;;;;;;5138028;27;20494;-82
2023/03/14 00:04:18;;;;;;;0.28;0.28;;;11.10;99.90;;;;;;5120300;27;20047;-83
2023/03/14 00:06:46;;;;;;;1.40;0.38;;;11.10;99.90;;;;;;5120950;27;20042;-83
2023/03/14 00:09:13;;;;;;;0.05;0.03;;;11.10;99.90;;;;;;5137662;27;20047;-83
2023/03/14 00:11:38;;;;;;;0.08;0.08;;;11.10;99.90;;;;;;5120490;27;20125;-83
2023/03/14 00:14:04;;;;;;;0.20;0.00;;;11.00;99.90;;;;;;5121391;27;20455;-83
2023/03/14 00:16:29;;;;;;;0.00;0.00;;;11.00;99.90;;;;;;5119903;27;20054;-83
2023/03/14 00:18:55;;;;;;;0.20;0.20;;;10.90;99.90;;;;;;5103615;27;20125;-83
2023/03/14 00:21:21;;;;;;;0.00;0.00;;;10.80;99.90;;;;;;5137430;27;20459;-83
2023/03/14 00:23:46;;;;;;;0.20;0.00;;;10.70;99.90;;;;;;5137506;27;20436;-84
2023/03/14 00:26:14;;;;;;;0.63;0.35;;;10.70;99.90;;;;;;5155383;27;20050;-83
2023/03/14 00:28:41;;;;;;;0.00;0.00;;;10.60;99.90;;;;;;5137490;27;20094;-84
2023/03/14 00:31:09;;;;;;;0.00;0.00;;;10.50;99.90;;;;;;5120545;27;20039;-84
2023/03/14 00:33:35;;;;;;;1.55;0.63;;;10.40;99.90;;;;;;5137623;27;20363;-77
2023/03/14 00:36:08;;;;;;;0.10;0.00;;;10.40;99.90;;;;;;5155583;27;20053;-78
2023/03/14 00:38:35;;;;;;;0.20;0.20;;;10.30;99.90;;;;;;5155654;27;20045;-77
2023/03/14 00:41:07;;;;;;;0.00;0.00;;;10.30;99.90;;;;;;5137255;27;20078;-77
2023/03/14 00:43:33;;;;;;;7.13;0.38;;;10.30;99.90;;;;;;5155589;27;20050;-80
2023/03/14 00:45:59;;;;;;;0.98;0.63;;;10.30;99.90;;;;;;5137073;27;20386;-80
2023/03/14 00:48:25;;;;;;;0.00;0.00;;;10.30;99.90;;;;;;5137264;27;20125;-81
2023/03/14 00:50:50;;;;;;;0.47;0.05;;;10.30;99.90;;;;;;5155485;27;20655;-78
2023/03/14 00:53:17;;;;;;;0.00;0.00;;;10.30;99.90;;;;;;5155416;27;20043;-80
2023/03/14 00:55:43;;;;;;;0.10;0.10;;;10.30;99.90;;;;;;5136838;27;20063;-82
2023/03/14 00:58:13;;;;;;;0.00;0.00;;;10.30;99.90;;;;;;5136787;27;20099;-82
2023/03/14 01:00:39;;;;;;;0.22;0.22;;;10.20;99.90;;;;;;5155591;27;20106;-82
2023/03/14 01:03:06;;;;;;;0.22;0.20;;;10.20;99.90;;;;;;5102671;27;20451;-80
2023/03/14 01:05:32;;;;;;;0.08;0.08;;;10.20;99.90;;;;;;5155271;27;20047;-79
2023/03/14 01:07:58;;;;;;;0.00;0.00;;;10.10;99.90;;;;;;5137041;27;20053;-77
2023/03/14 01:10:24;;;;;;;0.15;0.10;;;10.00;99.90;;;;;;5155598;27;20474;-79
2023/03/14 01:12:49;;;;;;;0.00;0.00;;;10.00;99.90;;;;;;5155212;27;20082;-76
2023/03/14 01:15:15;;;;;;;0.10;0.10;;;9.80;99.90;;;;;;5155139;27;20081;-77
2023/03/14 01:17:41;;;;;;;0.00;0.00;;;9.90;99.90;;;;;;5136920;27;20038;-77
2023/03/14 01:20:09;;;;;;;0.00;0.00;;;9.80;99.90;;;;;;5155477;27;20047;-82
2023/03/14 01:22:38;;;;;;;0.00;0.00;;;9.80;99.90;;;;;;5137284;27;20047;-81
2023/03/14 01:25:04;;;;;;;0.00;0.00;;;9.80;99.90;;;;;;5136949;27;20069;-84
2023/03/14 01:27:30;;;;;;;0.00;0.00;;;9.80;99.90;;;;;;5103289;27;20394;-84
2023/03/14 01:29:56;;;;;;;0.00;0.00;;;9.80;99.90;;;;;;5140914;27;20053;-84
2023/03/14 01:32:21;;;;;;;0.00;0.00;;;9.80;99.90;;;;;;5140875;27;20483;-84
2023/03/14 01:34:47;;;;;;;0.00;0.00;;;9.80;99.90;;;;;;5123544;27;20092;-85
2023/03/14 01:37:13;;;;;;;0.00;0.00;;;9.80;99.90;;;;;;5140807;27;20050;-85
2023/03/14 01:39:38;;;;;;;0.00;0.00;;;9.80;99.90;;;;;;5140544;27;20062;-85
2023/03/14 01:42:04;;;;;;;0.08;0.00;;;9.80;99.90;;;;;;5140636;27;20042;-85
2023/03/14 01:44:48;;;;;;;0.30;0.30;;;9.80;99.90;;;;;;5140981;27;20038;-85
2023/03/14 01:47:14;;;;;;;0.00;0.00;;;9.80;99.90;;;;;;5123468;27;20118;-84
2023/03/14 01:49:40;;;;;;;0.10;0.10;;;9.80;99.90;;;;;;5123294;27;20039;-85
2023/03/14 01:52:42;;;;;;;0.00;0.00;;;9.80;99.90;;;;;;5123888;27;20529;-84
2023/03/14 01:55:13;;;;;;;0.45;0.45;;;9.80;99.90;;;;;;5139309;27;20436;-84
2023/03/14 01:57:44;;;;;;;0.43;0.15;;;9.80;99.90;;;;;;5140093;27;20039;-83
2023/03/14 02:00:14;;;;;;;0.00;0.00;;;9.80;99.90;;;;;;5123283;27;20133;-82
2023/03/14 02:02:46;;;;;;;0.10;0.10;;;9.80;99.90;;;;;;5139995;27;20069;-82
2023/03/14 02:05:15;;;;;;;0.00;0.00;;;9.80;99.90;;;;;;5123044;27;20086;-82
2023/03/14 02:07:48;;;;;;;0.00;0.00;;;9.80;99.90;;;;;;5140261;27;20042;-81
2023/03/14 02:10:18;;;;;;;0.03;0.03;;;9.80;99.90;;;;;;5140407;27;20054;-82
2023/03/14 02:12:45;;;;;;;0.00;0.00;;;9.80;99.90;;;;;;5140093;27;20042;-81
2023/03/14 02:15:11;;;;;;;1.35;0.55;;;9.80;99.90;;;;;;5122809;27;20442;-82
2023/03/14 02:17:40;;;;;;;3.20;0.90;;;9.80;99.90;;;;;;5123284;27;20159;-82
2023/03/14 02:20:10;;;;;;;0.13;0.13;;;9.80;99.90;;;;;;5122835;27;20053;-82
2023/03/14 02:22:38;;;;;;;0.75;0.22;;;9.80;99.90;;;;;;5123166;27;20090;-81
2023/03/14 02:25:25;;;;;;;0.00;0.00;;;9.90;99.90;;;;;;5139950;27;20046;-82
2023/03/14 02:27:50;;;;;;;0.00;0.00;;;9.90;99.90;;;;;;5139329;27;20096;-82
2023/03/14 02:30:19;;;;;;;0.00;0.00;;;9.90;99.90;;;;;;5139751;27;20478;-82
2023/03/14 02:33:10;;;;;;;0.00;0.00;;;9.90;99.90;;;;;;5139644;27;20046;-82
2023/03/14 02:35:45;;;;;;;0.10;0.10;;;9.90;99.90;;;;;;5138241;27;20054;-82
2023/03/14 02:38:24;;;;;;;0.00;0.00;;;10.00;99.90;;;;;;5139477;27;20526;-82
2023/03/14 02:40:50;;;;;;;0.00;0.00;;;10.00;99.30;;;;;;5139640;27;20050;-82
2023/03/14 02:43:16;;;;;;;1.75;0.32;;;9.90;99.30;;;;;;5139739;27;20086;-82
2023/03/14 02:45:49;;;;;;;0.30;0.30;;;9.90;99.40;;;;;;5139371;27;20086;-82
2023/03/14 02:48:17;;;;;;;0.00;0.00;;;10.00;99.20;;;;;;5122304;27;20053;-82
2023/03/14 02:50:45;;;;;;;0.00;0.00;;;9.90;99.80;;;;;;5139257;27;20080;-82
2023/03/14 02:53:13;;;;;;;1.63;0.28;;;9.90;99.80;;;;;;5139200;27;20127;-82
2023/03/14 02:55:39;;;;;;;0.00;0.00;;;9.90;99.90;;;;;;5138968;27;20432;-82
2023/03/14 02:58:05;;;;;;;0.10;0.10;;;9.90;99.90;;;;;;5157021;27;20104;-82
2023/03/14 03:00:30;;;;;;;0.00;0.00;;;9.90;99.90;;;;;;5105027;27;20431;-82
2023/03/14 03:02:56;;;;;;;0.00;0.00;;;9.80;99.90;;;;;;5138786;27;20047;-82
2023/03/14 03:05:22;;;;;;;0.10;0.03;;;9.80;99.90;;;;;;5138838;27;20042;-82
2023/03/14 03:07:47;;;;;;;0.68;0.68;;;9.80;99.90;;;;;;5121791;27;20053;-82
2023/03/14 03:10:13;;;;;;;0.00;0.00;;;9.70;99.90;;;;;;5139175;27;20125;-82
2023/03/14 03:12:39;;;;;;;3.85;0.00;;;9.70;99.90;;;;;;5104942;27;20488;-82
2023/03/14 03:15:05;;;;;;;0.00;0.00;;;9.70;99.90;;;;;;5121665;27;20050;-82
2023/03/14 03:17:31;;;;;;;0.00;0.00;;;9.70;99.90;;;;;;5121735;27;20089;-83
2023/03/14 03:19:56;;;;;;;0.10;0.10;;;9.70;99.90;;;;;;5157003;27;20081;-82
2023/03/14 03:22:22;;;;;;;0.13;0.13;;;9.70;99.90;;;;;;5121660;27;20050;-82
2023/03/14 03:24:48;;;;;;;0.00;0.00;;;9.60;99.90;;;;;;5156956;27;20038;-82
2023/03/14 03:27:14;;;;;;;0.00;0.00;;;9.60;99.90;;;;;;5137830;27;20134;-82
2023/03/14 03:29:40;;;;;;;0.00;0.00;;;9.60;99.90;;;;;;5139308;27;20082;-83
2023/03/14 03:32:05;;;;;;;0.05;0.05;;;9.50;99.90;;;;;;5121938;27;20543;-83
2023/03/14 03:34:31;;;;;;;0.00;0.00;;;9.60;99.90;;;;;;5104288;27;20490;-82
2023/03/14 03:36:57;;;;;;;0.00;0.00;;;9.50;99.90;;;;;;5138561;27;20127;-82
2023/03/14 03:39:23;;;;;;;0.13;0.13;;;9.50;99.90;;;;;;5121331;27;20047;-82
2023/03/14 03:41:48;;;;;;;0.00;0.00;;;9.50;99.90;;;;;;5121194;27;20364;-82
2023/03/14 03:44:14;;;;;;;0.10;0.10;;;9.50;99.90;;;;;;5121235;27;20046;-82
2023/03/14 03:46:40;;;;;;;0.10;0.10;;;9.40;99.90;;;;;;5138454;27;20050;-83
2023/03/14 03:49:05;;;;;;;0.00;0.00;;;9.50;99.90;;;;;;5138682;27;20039;-82
2023/03/14 03:51:31;;;;;;;0.00;0.00;;;9.40;99.90;;;;;;5137550;27;20102;-82
2023/03/14 03:53:57;;;;;;;0.00;0.00;;;9.40;99.90;;;;;;5138112;27;20043;-82
2023/03/14 03:56:23;;;;;;;0.17;0.08;;;9.40;99.90;;;;;;5137662;27;20038;-82
2023/03/14 03:58:48;;;;;;;0.55;0.55;;;9.40;99.90;;;;;;5120446;27;20387;-83
2023/03/14 04:01:14;;;;;;;0.00;0.00;;;9.40;99.90;;;;;;5103609;27;20051;-82
2023/03/14 04:03:40;;;;;;;0.00;0.00;;;9.40;99.90;;;;;;5121240;27;20051;-83
2023/03/14 04:06:08;;;;;;;1.23;0.57;;;9.50;99.90;;;;;;5138104;27;20054;-83
2023/03/14 04:08:34;;;;;;;0.00;0.00;;;9.50;99.90;;;;;;5137789;27;20038;-83
2023/03/14 04:11:01;;;;;;;0.00;0.00;;;9.40;99.90;;;;;;5120694;27;20042;-82
2023/03/14 04:13:27;;;;;;;0.08;0.08;;;9.40;99.90;;;;;;5120582;27;20051;-82
2023/03/14 04:15:54;;;;;;;0.03;0.00;;;9.40;99.90;;;;;;5120386;27;20117;-83
2023/03/14 04:18:20;;;;;;;0.00;0.00;;;9.40;99.90;;;;;;5137495;27;20190;-83
2023/03/14 04:20:50;;;;;;;0.00;0.00;;;9.40;99.90;;;;;;5120487;27;20043;-83
2023/03/14 04:23:15;;;;;;;7.03;0.05;;;9.40;99.90;;;;;;5120377;27;20437;-82
2023/03/14 04:25:41;;;;;;;0.47;0.47;;;9.40;99.90;;;;;;5137540;27;20134;-83
2023/03/14 04:28:07;;;;;;;0.03;0.03;;;9.40;99.90;;;;;;5137102;27;20046;-83
2023/03/14 04:30:32;;;;;;;0.00;0.00;;;9.40;99.90;;;;;;5137426;27;20486;-83
2023/03/14 04:32:58;;;;;;;0.00;0.00;;;9.40;99.90;;;;;;5120014;27;20095;-82
2023/03/14 04:35:24;;;;;;;0.00;0.00;;;9.40;99.90;;;;;;5120110;27;20042;-83
2023/03/14 04:37:51;;;;;;;0.65;0.00;;;9.40;99.90;;;;;;5155608;27;20046;-83
2023/03/14 04:40:18;;;;;;;0.00;0.00;;;9.40;99.90;;;;;;5136962;27;20042;-83
2023/03/14 04:42:43;;;;;;;0.00;0.00;;;9.40;99.90;;;;;;5137377;27;20043;-83
2023/03/14 04:45:09;;;;;;;5.05;0.22;;;9.40;99.90;;;;;;5120178;27;20057;-83
2023/03/14 04:47:35;;;;;;;0.00;0.00;;;9.30;99.90;;;;;;5120319;27;20148;-83
2023/03/14 04:50:01;;;;;;;0.00;0.00;;;9.40;99.90;;;;;;5103456;27;20051;-83
2023/03/14 04:52:27;;;;;;;0.05;0.05;;;9.40;99.90;;;;;;5136879;27;20056;-83
2023/03/14 04:54:53;;;;;;;0.60;0.43;;;9.30;99.90;;;;;;5137930;27;20043;-82
2023/03/14 04:57:18;;;;;;;0.00;0.00;;;9.40;99.90;;;;;;5119762;27;20435;-83
2023/03/14 04:59:44;;;;;;;0.00;0.00;;;9.30;99.90;;;;;;5137205;27;20129;-82
2023/03/14 05:02:10;;;;;;;0.10;0.10;;;9.40;99.90;;;;;;5136863;27;20055;-83
2023/03/14 05:04:36;;;;;;;0.10;0.00;;;9.30;99.90;;;;;;5124335;27;20082;-82
2023/03/14 05:07:01;;;;;;;0.00;0.00;;;9.30;99.90;;;;;;5124284;27;20125;-83
2023/03/14 05:09:27;;;;;;;0.00;0.00;;;9.30;99.90;;;;;;5106948;27;20175;-83
2023/03/14 05:11:53;;;;;;;0.13;0.13;;;9.30;99.90;;;;;;5159493;27;20092;-83
2023/03/14 05:14:19;;;;;;;1.95;0.35;;;9.30;99.90;;;;;;5141869;27;20045;-83
2023/03/14 05:16:44;;;;;;;0.00;0.00;;;9.30;99.90;;;;;;5140936;27;20374;-83
2023/03/14 05:19:10;;;;;;;0.00;0.00;;;9.30;99.90;;;;;;5141123;27;20043;-83
2023/03/14 05:21:36;;;;;;;0.00;0.00;;;9.20;99.90;;;;;;5124005;27;20047;-82
2023/03/14 05:24:02;;;;;;;0.00;0.00;;;9.30;99.90;;;;;;5123846;27;20035;-83
2023/03/14 05:26:28;;;;;;;0.00;0.00;;;9.20;99.90;;;;;;5106542;27;20069;-83
2023/03/14 05:28:53;;;;;;;0.90;0.52;;;9.20;99.90;;;;;;5140412;27;20054;-83
2023/03/14 05:31:19;;;;;;;0.00;0.00;;;9.20;99.90;;;;;;5140877;27;20038;-82
2023/03/14 05:33:45;;;;;;;0.00;0.00;;;9.20;99.90;;;;;;5124052;27;20061;-82
2023/03/14 05:36:11;;;;;;;0.10;0.10;;;9.10;99.90;;;;;;5140347;27;20474;-82
2023/03/14 05:38:36;;;;;;;0.00;0.00;;;9.20;99.90;;;;;;5140524;27;20483;-82
2023/03/14 05:41:02;;;;;;;0.60;0.25;;;9.10;99.90;;;;;;5123070;27;20295;-83
2023/03/14 05:43:28;;;;;;;0.00;0.00;;;9.10;99.90;;;;;;5122428;27;20050;-82
2023/03/14 05:45:54;;;;;;;0.00;0.00;;;9.10;99.90;;;;;;5106389;27;20394;-82
2023/03/14 05:48:21;;;;;;;0.10;0.10;;;9.10;99.90;;;;;;5123286;27;20047;-82
2023/03/14 05:50:47;;;;;;;1.75;0.65;;;9.20;99.90;;;;;;5140489;27;20042;-83
2023/03/14 05:53:13;;;;;;;0.00;0.00;;;9.20;99.90;;;;;;5123252;27;20047;-83
2023/03/14 05:55:40;;;;;;;0.00;0.00;;;9.20;99.90;;;;;;5140410;27;20042;-83
2023/03/14 05:58:05;;;;;;;0.13;0.13;;;9.20;99.90;;;;;;5122863;27;20047;-82
2023/03/14 06:00:31;;;;;;;1.35;0.68;;;9.30;99.90;;;;;;5106307;27;20039;-83
2023/03/14 06:02:57;;;;;;;0.00;0.00;;;9.30;99.90;;;;;;5122476;27;20061;-83
2023/03/14 06:05:23;;;;;;;0.00;0.00;;;9.40;99.90;;;;;;5106278;27;20478;-82
2023/03/14 06:07:48;;;;;;;0.00;0.00;;;9.40;99.90;;;;;;5122964;27;20050;-83
2023/03/14 06:10:14;;;;;;;0.10;0.10;;;9.40;99.90;;;;;;5123027;27;20039;-82
2023/03/14 06:12:40;;;;;;;0.00;0.00;;;9.40;99.90;;;;;;5122914;27;20046;-82
2023/03/14 06:15:07;;;;;;;0.77;0.45;;;9.40;99.90;;;;;;5139400;27;20091;-82
2023/03/14 06:17:32;;;;;;;0.00;0.00;;;9.40;99.90;;;;;;5139682;27;20122;-83
2023/03/14 06:19:58;;;;;;;0.00;0.00;;;9.40;99.90;;;;;;5122827;27;20134;-83
2023/03/14 06:22:24;;;;;;;0.00;0.00;;;9.50;99.90;;;;;;5122702;27;20047;-82
2023/03/14 06:24:49;;;;;;;0.28;0.28;;;9.50;99.90;;;;;;5123526;27;20039;-83
2023/03/14 06:27:15;;;;;;;0.00;0.00;;;9.50;99.90;;;;;;5122261;27;20046;-83
2023/03/14 06:29:41;;;;;;;0.00;0.00;;;9.40;99.90;;;;;;5088929;27;20078;-83
2023/03/14 06:32:06;;;;;;;0.10;0.10;;;9.40;99.90;;;;;;5105697;27;20428;-83
2023/03/14 06:34:32;;;;;;;0.20;0.00;;;9.40;99.90;;;;;;5122910;27;20085;-83
2023/03/14 06:36:58;;;;;;;0.00;0.00;;;9.40;99.90;;;;;;5122453;27;20151;-84
2023/03/14 06:39:23;;;;;;;0.32;0.32;;;9.40;99.90;;;;;;5101767;27;20130;-81
2023/03/14 06:41:49;;;;;;;0.00;0.00;;;9.40;99.90;;;;;;5101988;27;20046;-82
2023/03/14 06:44:15;;;;;;;11.77;1.13;;;9.40;99.90;;;;;;5118921;27;20376;-84
2023/03/14 06:46:40;;;;;;;0.28;0.17;;;9.40;99.90;;;;;;5101814;27;20043;-82
2023/03/14 06:49:06;;;;;;;0.22;0.00;;;9.40;99.90;;;;;;5118467;27;20074;-83
2023/03/14 06:51:32;;;;;;;0.00;0.00;;;9.40;99.90;;;;;;5101784;27;20051;-83
2023/03/14 06:53:58;;;;;;;0.00;0.00;;;9.40;99.90;;;;;;5118773;27;20043;-85
2023/03/14 06:56:23;;;;;;;0.00;0.00;;;9.40;99.90;;;;;;5084581;27;20036;-85
2023/03/14 06:58:49;;;;;;;0.00;0.00;;;9.40;99.90;;;;;;5101326;27;20043;-85
2023/03/14 07:01:23;;;;;;;0.55;0.10;;;9.40;99.90;;;;;;5084686;27;20055;-85
2023/03/14 07:03:49;;;;;;;2.90;0.75;;;9.40;99.90;;;;;;5118617;27;20055;-85
2023/03/14 07:06:15;;;;;;;0.10;0.10;;;9.40;99.90;;;;;;5084583;27;20455;-84
2023/03/14 07:08:41;;;;;;;1.35;0.50;;;9.40;99.90;;;;;;5084561;27;20044;-84
2023/03/14 07:11:07;;;;;;;0.00;0.00;;;9.40;99.90;;;;;;5118406;27;20047;-85
2023/03/14 07:13:33;;;;;;;0.00;0.00;;;9.50;99.90;;;;;;5101307;27;20424;-85
2023/03/14 07:15:59;;;;;;;2.17;0.52;;;9.50;99.90;;;;;;5101085;27;20039;-90
2023/03/14 07:18:24;;;;;;;0.00;0.00;;;9.50;99.90;;;;;;5101475;27;20039;-85
2023/03/14 07:20:50;;;;;;;0.00;0.00;;;9.50;99.90;;;;;;5118195;27;20043;-85
2023/03/14 07:23:15;;;;;;;0.00;0.00;;;9.50;99.90;;;;;;5084419;27;20043;-85
2023/03/14 07:25:41;;;;;;;0.10;0.10;;;9.50;99.90;;;;;;5117259;27;20133;-93
2023/03/14 07:28:07;;;;;;;0.08;0.00;;;9.50;99.90;;;;;;5067672;27;20065;-92
2023/03/14 07:30:33;;;;;;;0.00;0.00;;;9.60;99.90;;;;;;5084713;27;20372;-91
2023/03/14 07:32:58;;;;;;;0.68;0.55;;;9.60;99.90;;;;;;5101070;27;20042;-88
2023/03/14 07:35:24;;;;;;;0.10;0.00;;;9.50;99.90;;;;;;5100743;27;20092;-84
2023/03/14 07:37:49;;;;;;;3.08;0.50;;;9.60;99.90;;;;;;5117910;27;20046;-78
2023/03/14 07:40:15;;;;;;;0.20;0.20;;;9.50;99.90;;;;;;5118647;27;20471;-80
2023/03/14 07:42:44;;;;;;;0.00;0.00;;;9.30;99.90;;;;;;5135735;27;20046;-83
2023/03/14 07:45:10;;;;;;;0.00;0.00;;;9.10;99.90;;;;;;5100416;27;20042;-82
2023/03/14 07:47:36;;;;;;;0.05;0.05;;;9.00;99.90;;;;;;5100554;27;20043;-82
2023/03/14 07:50:04;;;;;;;0.00;0.00;;;8.90;99.90;;;;;;5067342;27;20100;-82
2023/03/14 07:52:29;;;;;;;0.00;0.00;;;8.80;99.90;;;;;;5117528;27;20046;-83
2023/03/14 07:54:55;;;;;;;0.00;0.00;;;8.80;99.90;;;;;;5100502;27;20391;-83
2023/03/14 07:57:21;;;;;;;0.05;0.05;;;8.80;99.90;;;;;;5117107;27;20078;-82
2023/03/14 07:59:46;;;;;;;0.00;0.00;;;8.70;99.90;;;;;;5117366;27;20125;-82
2023/03/14 08:02:13;;;;;;;0.00;0.00;;;8.50;99.90;;;;;;5096660;28;20130;-81
2023/03/14 08:04:40;;;;;;;0.25;0.25;;;8.40;99.90;;;;;;5113910;28;20380;-83
2023/03/14 08:07:06;;;;;;;0.00;0.00;;;8.20;99.90;;;;;;5114867;28;20054;-81
2023/03/14 08:09:31;;;;;;;0.00;0.00;;;8.00;99.90;;;;;;5113910;28;20051;-82
2023/03/14 08:11:57;;;;;;;0.00;0.00;;;7.80;99.90;;;;;;5096831;28;20486;-82
2023/03/14 08:14:26;;;;;;;0.00;0.00;;;7.70;99.90;;;;;;5113698;28;20129;-86
2023/03/14 08:16:52;;;;;;;0.00;0.00;;;7.50;99.90;;;;;;5113030;28;20039;-85
2023/03/14 08:19:18;;;;;;;0.00;0.00;;;7.40;99.90;;;;;;5113054;28;20042;-85
2023/03/14 08:21:43;;;;;;;0.00;0.00;;;7.30;98.30;;;;;;5079808;28;20089;-86
2023/03/14 08:24:09;;;;;;;0.00;0.00;;;7.00;96.30;;;;;;5096598;28;20052;-85
2023/03/14 08:26:35;;;;;;;0.00;0.00;;;6.90;95.80;;;;;;5079621;28;20126;-82
2023/03/14 08:29:01;;;;;;;0.00;0.00;;;6.80;96.40;;;;;;5096166;28;20511;-89
2023/03/14 08:31:26;;;;;;;0.00;0.00;;;6.70;97.00;;;;;;5114006;28;20058;-94
2023/03/14 08:33:53;;;;;;;0.05;0.00;;;6.70;96.50;;;;;;5080170;28;20054;-86
2023/03/14 08:36:19;;;;;;;0.00;0.00;;;6.60;96.20;;;;;;5096495;28;20048;-89
2023/03/14 08:38:44;;;;;;;0.00;0.00;;;6.50;97.10;;;;;;5097056;28;20043;-87
2023/03/14 08:41:11;;;;;;;0.00;0.00;;;6.40;98.30;;;;;;5079336;28;20047;-88
2023/03/14 08:43:36;;;;;;;0.00;0.00;;;6.40;97.50;;;;;;5079650;28;20395;-87
2023/03/14 08:46:03;;;;;;;0.00;0.00;;;6.30;97.40;;;;;;5113336;28;20043;-85
2023/03/14 08:48:29;;;;;;;0.00;0.00;;;6.20;95.60;;;;;;5062971;28;20052;-86
2023/03/14 08:51:24;;;;;;;0.05;0.00;;;6.10;95.30;;;;;;5096469;28;20433;-85
2023/03/14 08:53:50;;;;;;;0.00;0.00;;;6.00;96.10;;;;;;5062576;28;20052;-85
2023/03/14 08:56:16;;;;;;;0.00;0.00;;;6.00;96.00;;;;;;5112948;28;20535;-83
2023/03/14 08:58:42;;;;;;;0.00;0.00;;;6.10;95.90;;;;;;5077249;28;20050;-85
2023/03/14 09:01:10;;;;;;;0.00;0.00;;;6.10;94.90;;;;;;5132531;27;20589;-84
2023/03/14 09:03:36;;;;;;;0.00;0.00;;;6.00;95.20;;;;;;5119231;27;20398;-85
2023/03/14 09:06:07;;;;;;;0.00;0.00;;;6.00;95.40;;;;;;5118845;27;20138;-83
2023/03/14 09:08:33;;;;;;;0.00;0.00;;;6.00;96.10;;;;;;5102792;27;20126;-83
2023/03/14 09:10:59;;;;;;;0.00;0.00;;;5.90;95.30;;;;;;5135937;27;20417;-83
2023/03/14 09:13:25;;;;;;;0.00;0.00;;;6.00;95.20;;;;;;5119884;27;20038;-84
2023/03/14 09:15:55;;;;;;;0.43;0.30;;;6.00;95.60;;;;;;5119740;27;20195;-83
2023/03/14 09:18:22;;;;;;;0.00;0.00;;;6.00;95.90;;;;;;5137347;27;20061;-83
2023/03/14 09:20:48;;;;;;;0.00;0.00;;;6.10;95.80;;;;;;5103021;27;20092;-83
2023/03/14 09:23:14;;;;;;;0.85;0.40;;;6.20;95.70;;;;;;5120316;27;20162;-82
2023/03/14 09:25:40;;;;;;;0.20;0.20;;;6.20;95.20;;;;;;5136820;27;20488;-83
2023/03/14 09:28:05;;;;;;;0.00;0.00;;;6.10;93.90;;;;;;5120003;27;20042;-81
2023/03/14 09:30:32;;;;;;;0.00;0.00;;;6.20;94.80;;;;;;5136782;27;20047;-81
2023/03/14 09:32:58;;;;;;;0.00;0.00;;;6.30;94.80;;;;;;5102819;27;20045;-83
2023/03/14 09:35:25;;;;;;;0.00;0.00;;;6.30;93.90;;;;;;5102740;27;20078;-82
2023/03/14 09:37:51;;;;;;;0.00;0.00;;;6.30;92.60;;;;;;5136793;27;20133;-81
2023/03/14 09:40:19;;;;;;;0.00;0.00;;;6.30;92.80;;;;;;5119664;27;20051;-83
2023/03/14 09:42:48;;;;;;;0.00;0.00;;;6.40;93.60;;;;;;5103003;27;20394;-82
2023/03/14 09:45:26;;;;;;;0.00;0.00;;;6.50;94.20;;;;;;5136806;27;20053;-82
2023/03/14 09:47:55;;;;;;;0.00;0.00;;;6.60;92.90;;;;;;5136978;27;20368;-82
2023/03/14 09:50:21;;;;;;;0.20;0.20;;;6.60;91.60;;;;;;5123340;27;20054;-82
2023/03/14 09:52:51;;;;;;;0.10;0.10;;;6.70;90.20;;;;;;5123046;27;20057;-83
2023/03/14 09:55:22;;;;;;;0.00;0.00;;;6.70;79.80;;;;;;5140043;27;20125;-83
2023/03/14 09:57:51;;;;;;;0.00;0.00;;;6.80;81.90;;;;;;5122894;27;20391;-82
2023/03/14 10:00:20;;;;;;;0.00;0.00;;;6.90;82.50;;;;;;5123627;27;20138;-82
2023/03/14 10:02:59;;;;;;;0.00;0.00;;;7.10;82.50;;;;;;5158814;27;20062;-82
2023/03/14 10:05:29;;;;;;;0.00;0.00;;;7.30;82.50;;;;;;5158542;27;20038;-82
2023/03/14 10:07:55;;;;;;;0.00;0.00;;;7.40;75.80;;;;;;5123608;27;20390;-82
2023/03/14 10:10:24;;;;;;;10.18;1.40;;;7.40;70.00;;;;;;5122708;27;20055;-82
2023/03/14 10:13:24;;;;;;;1.38;1.13;;;7.40;64.90;;;;;;5122852;27;20046;-81
2023/03/14 10:16:01;;;;;;;0.00;0.00;;;7.40;54.60;;;;;;5158436;27;20052;-81
2023/03/14 10:18:29;;;;;;;0.00;0.00;;;7.50;51.50;;;;;;5139991;27;20059;-81
2023/03/14 10:21:18;;;;;;;0.30;0.30;;;7.50;48.80;;;;;;5122726;27;20043;-81
2023/03/14 10:23:44;;;;;;;0.95;0.77;;;7.40;39.10;;;;;;5139784;27;20043;-82
2023/03/14 10:26:15;;;;;;;0.00;0.00;;;7.30;35.40;;;;;;5122586;27;20498;-84
2023/03/14 10:28:51;;;;;;;5.10;1.13;;;7.30;41.40;;;;;;5139337;27;20398;-81
2023/03/14 10:31:17;;;;;;;0.00;0.00;;;7.30;51.60;;;;;;5125794;27;20035;-82
2023/03/14 10:34:04;;;;;;;0.00;0.00;;;7.40;53.10;;;;;;5110846;27;20046;-82
2023/03/14 10:36:34;;;;;;;0.10;0.10;;;7.50;69.00;;;;;;5138965;27;20049;-80
2023/03/14 10:39:15;;;;;;;0.10;0.10;;;7.70;62.80;;;;;;5134323;27;20045;-83
2023/03/14 10:41:52;;;;;;;0.00;0.00;;;7.60;33.20;;;;;;5147025;27;20047;-82
2023/03/14 10:44:22;;;;;;;0.80;0.35;;;7.50;26.30;;;;;;5139679;27;20054;-82
2023/03/14 10:47:17;;;;;;;0.03;0.03;;;7.50;23.20;;;;;;5139456;27;20086;-82
2023/03/14 10:49:43;;;;;;;0.00;0.00;;;7.50;28.90;;;;;;5136137;27;20490;-83
2023/03/14 10:52:26;;;;;;;0.10;0.10;;;7.60;25.90;;;;;;5139391;27;20054;-84
2023/03/14 10:54:58;;;;;;;0.00;0.00;;;7.60;24.50;;;;;;5122149;27;20046;-83
2023/03/14 10:57:25;;;;;;;0.20;0.20;;;7.70;26.70;;;;;;5138687;27;20137;-84
2023/03/14 10:59:51;;;;;;;0.00;0.00;;;7.50;15.40;;;;;;5122142;27;20047;-84
2023/03/14 11:02:39;;;;;;;0.30;0.30;;;7.40;1.00;;;;;;5121304;27;20042;-84
2023/03/14 11:05:28;;;;;;;0.45;0.15;;;7.30;1.00;;;;;;5139485;27;20061;-84
2023/03/14 11:08:01;;;;;;;0.00;0.00;;;7.30;1.00;;;;;;5139185;27;20083;-84
2023/03/14 11:10:32;;;;;;;0.20;0.20;;;7.30;1.00;;;;;;5139434;27;20046;-84
2023/03/14 11:13:25;;;;;;;0.20;0.20;;;7.30;1.00;;;;;;5104934;27;20435;-84
2023/03/14 11:15:54;;;;;;;0.00;0.00;;;7.30;1.00;;;;;;5083743;27;20050;-84
2023/03/14 11:18:42;;;;;;;1.25;0.00;;;7.40;1.00;;;;;;5121817;27;20047;-85
2023/03/14 11:21:19;;;;;;;0.22;0.22;;;7.50;1.00;;;;;;5121580;27;20093;-84
2023/03/14 11:23:59;;;;;;;0.00;0.00;;;7.60;1.00;;;;;;5138728;27;20039;-83
2023/03/14 11:26:43;;;;;;;0.08;0.05;;;7.90;1.00;;;;;;5121537;27;20095;-83
2023/03/14 11:29:33;;;;;;;3.10;0.47;;;8.00;99.90;;;;;;5138150;27;20047;-83
2023/03/14 11:32:02;;;;;;;0.25;0.25;;;8.10;1.00;;;;;;5121518;27;20187;-82
2023/03/14 11:34:38;;;;;;;0.00;0.00;;;8.10;1.00;;;;;;5121303;27;20144;-82
2023/03/14 11:37:21;;;;;;;0.55;0.00;;;8.10;51.00;;;;;;5121543;27;20066;-82
2023/03/14 11:39:55;;;;;;;0.10;0.10;;;8.20;1.00;;;;;;5121052;27;20065;-83
2023/03/14 11:42:22;;;;;;;0.00;0.00;;;8.30;99.90;;;;;;5138136;27;20478;-83
2023/03/14 11:44:49;;;;;;;0.00;0.00;;;8.40;1.00;;;;;;5138538;27;20134;-83
2023/03/14 11:47:31;;;;;;;3.22;0.93;;;8.40;1.00;;;;;;5121194;27;20125;-83
2023/03/14 11:50:08;;;;;;;0.45;0.30;;;8.40;1.00;;;;;;5138372;27;20047;-83
2023/03/14 11:52:47;;;;;;;0.90;0.10;;;8.20;1.00;;;;;;5138219;27;20099;-83
2023/03/14 11:55:32;;;;;;;0.55;0.35;;;8.10;99.90;;;;;;5138323;27;20095;-84
2023/03/14 11:58:27;;;;;;;0.15;0.08;;;8.10;99.90;;;;;;5120078;27;20043;-83
2023/03/14 12:00:56;;;;;;;0.00;0.00;;;8.10;99.90;;;;;;5120762;27;20045;-83
2023/03/14 12:03:43;;;;;;;1.20;1.10;;;8.30;99.90;;;;;;5137663;27;20046;-83
2023/03/14 12:06:21;;;;;;;0.00;0.00;;;8.50;99.90;;;;;;5137839;27;20051;-83
2023/03/14 12:08:50;;;;;;;0.43;0.40;;;8.80;1.10;;;;;;5120731;27;20058;-83
2023/03/14 12:11:44;;;;;;;0.00;0.00;;;9.20;1.00;;;;;;5120125;27;20398;-83
2023/03/14 12:14:24;;;;;;;0.00;0.00;;;9.30;1.00;;;;;;5120586;27;20101;-84
2023/03/14 12:16:56;;;;;;;0.00;0.00;;;9.40;99.90;;;;;;5138051;27;20058;-85
2023/03/14 12:19:22;;;;;;;0.00;0.00;;;9.40;99.90;;;;;;5120859;27;20050;-84
2023/03/14 12:22:19;;;;;;;0.38;0.35;;;9.30;99.90;;;;;;5137465;27;20399;-84
2023/03/14 12:24:50;;;;;;;0.00;0.00;;;9.10;99.90;;;;;;5081515;27;20087;-84
2023/03/14 12:27:44;;;;;;;0.10;0.10;;;8.90;99.90;;;;;;5137154;27;20039;-84
2023/03/14 12:30:33;;;;;;;0.00;0.00;;;9.00;99.90;;;;;;5137243;27;20693;-84
2023/03/14 12:33:17;;;;;;;0.00;0.00;;;9.20;99.90;;;;;;5120269;27;20481;-83
2023/03/14 12:35:51;;;;;;;0.00;0.00;;;9.70;99.90;;;;;;5137227;27;20038;-83
2023/03/14 12:38:35;;;;;;;0.00;0.00;;;10.10;99.90;;;;;;5137702;27;20038;-83
2023/03/14 12:41:19;;;;;;;1.17;0.10;;;10.40;99.90;;;;;;5137295;27;20041;-84
2023/03/14 12:43:45;;;;;;;0.00;0.00;;;10.70;99.90;;;;;;5120488;27;20043;-84
2023/03/14 12:46:17;;;;;;;0.00;0.00;;;10.70;99.90;;;;;;5137271;27;20039;-84
2023/03/14 12:48:49;;;;;;;0.00;0.00;;;10.70;99.90;;;;;;5120313;27;20046;-84
2023/03/14 12:51:28;;;;;;;0.00;0.00;;;10.90;99.90;;;;;;5136926;27;20078;-84
2023/03/14 12:54:39;;;;;;;0.00;0.00;;;10.90;99.90;;;;;;5120173;27;20047;-84
2023/03/14 12:57:07;;;;;;;0.00;0.00;;;10.70;99.90;;;;;;5120219;27;20041;-83
2023/03/14 12:59:35;;;;;;;0.10;0.10;;;10.60;99.90;;;;;;5136763;27;20039;-83
2023/03/14 13:02:19;;;;;;;0.30;0.15;;;10.40;99.90;;;;;;5137215;27;20143;-83
2023/03/14 13:05:10;;;;;;;0.00;0.00;;;10.50;96.70;;;;;;5136757;27;20051;-82
2023/03/14 13:07:48;;;;;;;0.00;0.00;;;10.70;99.20;;;;;;5120227;27;20054;-82